aviador You're here:

LYKV Decoded Metar

KRALJEVO/LADEVCI in SERBIA
Report Time2018-05-21 16:30:00
UTC Time2018-05-21 17:03:31
Flight Rules vfr VFR
Wind110° at 05 kt
W.Decomp.*RWY 14: 4.2 kt HW 2.7 kt LCW
W.Rank110° ranks 23
Current wind is above 110° avg. (3.9)
Visibility9999 m
Phenomena:N/A
Clouds:Broken 040 Hf
Expected CloudBase > 1,600 ft AGL from Temp-Dew spread
Ceiling4,000 ft
Temp18°C (ISA +4)
Dew Point14°C (78% RH)
AAT17.5°C
QNH1015 hPa
Density Alt1,358 ft
Elevation694 ft
Report Wrong Elevation
Raw Report
METAR LYKV 211630Z 11005KT 080V150 9999 BKN040 18/14 Q1015 NOSIG=

Extra information for LYKV:More info

Metar Taf Metar & Taf Last 4 Metars F.Rules Stats Wind Profile Meteogram Temp Stats Airport Information Weather charts Add Link Nearby VenuesMetar ALERT Operation Metar Decoded Social comments